Time;durP1;ratioP1;P1;durP2;ratioP2;P2;SDS_P1;SDS_P2;PMS_P1;PMS_P2;Temp;Humidity;BMP_temperature;BMP_pressure;BME280_temperature;BME280_humidity;BME280_pressure;Samples;Min_cycle;Max_cycle;Signal;HPM_P1;HPM_P2
2023/05/20 00:01:59;;;;;;;5.90;4.80;;;;;;;13.61;75.38;98802.13;5045616;27;102899;-64
2023/05/20 00:04:27;;;;;;;5.83;3.90;;;;;;;13.44;76.71;98808.84;5047656;27;103749;-63
2023/05/20 00:06:55;;;;;;;5.00;4.50;;;;;;;13.41;76.13;98798.47;5046642;27;106365;-64
2023/05/20 00:09:24;;;;;;;6.03;4.50;;;;;;;13.45;75.85;98804.34;5046233;27;102750;-63
2023/05/20 00:11:52;;;;;;;5.60;4.57;;;;;;;13.41;76.02;98808.25;5046462;27;102677;-64
2023/05/20 00:14:20;;;;;;;4.47;3.80;;;;;;;13.44;75.73;98810.66;5045252;27;104166;-64
2023/05/20 00:16:48;;;;;;;6.60;4.80;;;;;;;13.20;76.78;98801.06;5045894;27;103305;-64
2023/05/20 00:19:16;;;;;;;5.30;3.77;;;;;;;13.21;77.02;98797.47;5045626;27;102721;-64
2023/05/20 00:21:44;;;;;;;6.07;5.47;;;;;;;12.90;77.89;98797.34;5027606;27;102751;-63
2023/05/20 00:24:14;;;;;;;5.40;4.87;;;;;;;12.86;79.33;98794.09;5044524;27;103163;-63
2023/05/20 00:26:44;;;;;;;5.43;4.37;;;;;;;12.96;78.75;98799.53;5045672;27;104428;-63
2023/05/20 00:29:12;;;;;;;4.63;4.17;;;;;;;13.10;77.56;98799.28;5046726;27;102706;-63
2023/05/20 00:31:40;;;;;;;5.77;4.33;;;;;;;13.03;78.01;98798.91;5026417;27;103109;-63
2023/05/20 00:34:09;;;;;;;5.07;4.57;;;;;;;13.05;78.00;98794.31;5042225;27;104539;-63
2023/05/20 00:36:37;;;;;;;5.30;4.80;;;;;;;13.08;78.17;98790.63;5047911;27;103212;-63
2023/05/20 00:39:06;;;;;;;5.27;4.73;;;;;;;13.17;77.82;98790.69;5045742;27;102754;-63
2023/05/20 00:41:34;;;;;;;4.30;3.90;;;;;;;13.12;78.08;98803.50;5015463;27;102710;-63
2023/05/20 00:44:03;;;;;;;5.13;4.63;;;;;;;13.16;77.73;98794.34;5027666;27;103256;-60
2023/05/20 00:46:31;;;;;;;5.57;5.07;;;;;;;13.10;77.57;98793.97;5023799;27;103229;-60
2023/05/20 00:49:00;;;;;;;6.17;4.03;;;;;;;13.25;77.11;98788.25;5044177;27;102740;-60
2023/05/20 00:51:28;;;;;;;4.67;4.07;;;;;;;13.38;76.51;98797.88;5040779;27;102784;-59
2023/05/20 00:53:56;;;;;;;5.50;4.80;;;;;;;13.45;76.58;98788.44;5020497;27;103470;-60
2023/05/20 00:56:26;;;;;;;7.53;4.63;;;;;;;13.46;76.79;98787.47;5042192;27;107659;-59
2023/05/20 00:58:55;;;;;;;4.73;4.23;;;;;;;13.46;76.77;98787.47;5022516;27;102886;-60
2023/05/20 01:01:25;;;;;;;6.43;4.90;;;;;;;13.41;77.34;98787.00;5020900;27;102900;-60
2023/05/20 01:03:53;;;;;;;4.83;4.17;;;;;;;13.43;77.98;98785.91;5040771;27;103200;-60
2023/05/20 01:06:21;;;;;;;4.60;3.80;;;;;;;13.51;77.82;98782.63;5020174;27;104404;-60
2023/05/20 01:08:49;;;;;;;3.57;3.20;;;;;;;13.62;76.67;98779.91;5042740;27;102660;-60
2023/05/20 01:11:25;;;;;;;4.50;4.10;;;;;;;13.61;77.68;98783.56;5027674;27;103224;-61
2023/05/20 01:13:57;;;;;;;5.47;4.60;;;;;;;13.51;78.45;98777.31;5043751;27;109667;-61
2023/05/20 01:16:30;;;;;;;6.67;5.03;;;;;;;13.36;79.42;98780.25;5044225;27;103126;-60
2023/05/20 01:19:01;;;;;;;4.60;4.20;;;;;;;13.52;78.70;98771.03;5041109;27;102656;-60
2023/05/20 01:21:31;;;;;;;4.90;4.40;;;;;;;13.56;78.59;98769.84;5039442;27;103045;-60
2023/05/20 01:24:01;;;;;;;3.90;3.50;;;;;;;13.61;78.33;98772.94;5040221;27;103297;-60
2023/05/20 01:26:29;;;;;;;4.13;3.73;;;;;;;13.63;78.64;98773.66;5039791;27;104316;-60
2023/05/20 01:28:57;;;;;;;5.73;4.40;;;;;;;13.68;78.28;98774.94;5025791;27;102665;-60
2023/05/20 01:31:30;;;;;;;5.13;4.10;;;;;;;13.72;78.08;98775.53;5041206;27;103348;-60
2023/05/20 01:33:59;;;;;;;4.57;3.63;;;;;;;13.77;78.00;98765.38;5041203;27;103381;-59
2023/05/20 01:36:30;;;;;;;5.17;4.37;;;;;;;13.83;77.11;98756.88;5041499;27;109993;-60
2023/05/20 01:39:00;;;;;;;7.77;4.30;;;;;;;13.81;77.79;98758.84;5039552;27;102587;-60
2023/05/20 01:41:29;;;;;;;5.47;4.97;;;;;;;13.77;78.01;98758.25;5021247;27;102652;-60
2023/05/20 01:43:58;;;;;;;4.40;4.00;;;;;;;13.68;78.49;98752.84;5037121;27;103318;-60
2023/05/20 01:46:26;;;;;;;6.17;3.83;;;;;;;13.71;78.21;98756.09;5037404;27;103134;-60
2023/05/20 01:48:54;;;;;;;4.50;3.40;;;;;;;13.73;77.93;98755.97;5029191;27;102725;-61
2023/05/20 01:51:23;;;;;;;4.37;3.70;;;;;;;13.68;78.54;98759.00;5039308;27;102934;-60
2023/05/20 01:53:51;;;;;;;4.97;4.43;;;;;;;13.65;78.83;98753.97;5047230;27;103120;-60
2023/05/20 01:56:21;;;;;;;4.43;4.03;;;;;;;13.73;78.38;98761.28;5040468;27;103053;-60
2023/05/20 01:58:49;;;;;;;5.70;4.97;;;;;;;13.79;77.73;98760.75;5050449;27;102744;-59
2023/05/20 02:01:17;;;;;;;4.27;3.87;;;;;;;13.78;78.26;98765.22;5024473;27;102794;-60
2023/05/20 02:03:45;;;;;;;4.50;4.10;;;;;;;13.76;78.40;98767.19;5043124;27;103525;-60
2023/05/20 02:06:13;;;;;;;4.67;4.10;;;;;;;13.84;77.82;98769.19;5050078;27;102907;-59
2023/05/20 02:08:41;;;;;;;4.23;3.60;;;;;;;13.89;77.67;98762.50;5048415;27;102602;-60
2023/05/20 02:11:09;;;;;;;4.80;4.40;;;;;;;13.94;77.46;98756.81;5040109;27;102608;-60
2023/05/20 02:13:39;;;;;;;4.07;3.50;;;;;;;13.95;77.36;98747.88;5049357;27;103404;-60
2023/05/20 02:16:07;;;;;;;5.00;4.03;;;;;;;13.91;77.32;98747.31;5027743;27;103300;-60
2023/05/20 02:18:35;;;;;;;4.53;4.13;;;;;;;13.94;76.79;98748.84;5041995;27;102700;-64
2023/05/20 02:21:05;;;;;;;5.17;4.50;;;;;;;13.71;79.06;98741.97;5030071;27;102651;-64
2023/05/20 02:23:33;;;;;;;5.17;4.70;;;;;;;13.60;79.27;98744.69;5047617;27;106039;-63
2023/05/20 02:26:02;;;;;;;5.27;3.87;;;;;;;13.61;79.49;98741.94;5048120;27;103061;-64
2023/05/20 02:28:29;;;;;;;4.27;3.83;;;;;;;13.64;79.14;98746.97;5013538;27;102852;-64
2023/05/20 02:30:59;;;;;;;5.60;5.00;;;;;;;13.58;79.36;98757.25;5025277;27;102867;-64
2023/05/20 02:33:27;;;;;;;4.97;4.47;;;;;;;13.46;80.62;98763.59;5045433;27;103152;-64
2023/05/20 02:35:55;;;;;;;5.13;4.30;;;;;;;13.43;80.61;98755.88;5028650;27;103192;-64
2023/05/20 02:38:24;;;;;;;5.97;4.43;;;;;;;13.23;81.38;98753.06;5033891;27;103719;-64
2023/05/20 02:40:52;;;;;;;4.83;3.80;;;;;;;13.51;80.25;98756.94;5034150;27;103871;-64
2023/05/20 02:43:20;;;;;;;6.33;4.33;;;;;;;13.49;79.88;98755.38;5042346;27;103469;-64
2023/05/20 02:45:48;;;;;;;5.30;4.10;;;;;;;13.50;80.01;98749.09;5047266;27;103071;-64
2023/05/20 02:48:17;;;;;;;4.73;4.27;;;;;;;13.49;80.16;98748.25;5034823;27;103761;-64
2023/05/20 02:50:46;;;;;;;4.20;3.30;;;;;;;13.56;79.57;98749.41;5044943;27;103075;-64
2023/05/20 02:53:14;;;;;;;5.30;3.87;;;;;;;13.62;78.77;98748.06;5045125;27;103512;-64
2023/05/20 02:55:43;;;;;;;5.90;3.47;;;;;;;13.73;78.17;98748.84;5045644;27;103419;-64
2023/05/20 02:58:12;;;;;;;5.27;4.23;;;;;;;13.60;78.79;98744.69;5044872;27;103058;-64
2023/05/20 03:00:40;;;;;;;4.23;3.80;;;;;;;13.62;78.90;98754.22;5030784;27;102784;-64
2023/05/20 03:03:09;;;;;;;3.87;3.40;;;;;;;13.64;78.23;98756.75;5024653;27;103390;-64
2023/05/20 03:05:44;;;;;;;4.03;3.63;;;;;;;13.63;78.21;98752.41;5016731;27;105721;-64
2023/05/20 03:08:13;;;;;;;6.80;4.13;;;;;;;13.43;79.90;98759.38;5045436;27;102808;-64
2023/05/20 03:10:41;;;;;;;4.70;4.30;;;;;;;13.40;80.37;98758.78;5048800;27;102837;-64
2023/05/20 03:13:10;;;;;;;4.73;4.23;;;;;;;13.25;81.39;98753.78;5032570;27;107480;-64
2023/05/20 03:15:38;;;;;;;4.40;3.73;;;;;;;13.21;81.85;98755.00;5043363;27;107357;-64
2023/05/20 03:18:08;;;;;;;4.17;3.83;;;;;;;13.31;81.32;98758.56;5045853;27;102964;-64
2023/05/20 03:20:37;;;;;;;3.57;3.23;;;;;;;13.33;80.18;98751.31;5051289;27;102822;-64
2023/05/20 03:23:08;;;;;;;5.03;3.80;;;;;;;13.45;79.80;98752.13;5028615;27;104408;-64
2023/05/20 03:25:37;;;;;;;4.90;3.70;;;;;;;13.46;79.78;98758.28;5037340;27;108541;-64
2023/05/20 03:28:05;;;;;;;7.40;5.23;;;;;;;13.32;80.51;98752.31;5031866;27;102738;-64
2023/05/20 03:30:36;;;;;;;4.50;4.10;;;;;;;13.15;81.59;98754.66;5040934;27;102802;-64
2023/05/20 03:33:05;;;;;;;4.23;3.80;;;;;;;13.20;81.40;98748.00;5020250;27;106409;-64
2023/05/20 03:35:35;;;;;;;5.57;4.80;;;;;;;13.20;80.70;98750.66;5022023;27;103155;-64
2023/05/20 03:38:04;;;;;;;5.50;4.57;;;;;;;12.69;82.97;98757.50;5025749;27;102670;-64
2023/05/20 03:40:35;;;;;;;4.70;3.90;;;;;;;12.70;84.96;98751.22;5049804;27;103831;-64
2023/05/20 03:43:04;;;;;;;4.30;3.90;;;;;;;12.94;83.08;98754.56;5025105;27;103999;-64
2023/05/20 03:45:33;;;;;;;4.77;4.33;;;;;;;12.47;84.65;98763.66;5035719;27;109750;-64
2023/05/20 03:48:07;;;;;;;4.73;3.73;;;;;;;12.78;84.02;98757.59;5016596;27;102828;-64
2023/05/20 03:50:35;;;;;;;4.63;3.77;;;;;;;12.87;83.08;98765.78;5019296;27;103017;-64
2023/05/20 03:53:04;;;;;;;6.33;4.07;;;;;;;12.86;82.29;98764.94;5031629;27;106599;-64
2023/05/20 03:55:39;;;;;;;3.70;3.40;;;;;;;12.82;83.10;98760.88;5041787;27;103802;-64
2023/05/20 03:58:08;;;;;;;5.03;4.53;;;;;;;12.85;81.95;98765.06;5021928;27;102850;-64
2023/05/20 04:00:36;;;;;;;5.00;4.60;;;;;;;12.45;84.75;98762.94;5036004;27;104061;-64
2023/05/20 04:03:04;;;;;;;5.03;4.23;;;;;;;12.62;84.27;98766.91;5025783;27;104878;-64
2023/05/20 04:05:32;;;;;;;5.13;4.63;;;;;;;12.91;82.57;98761.94;5029769;27;103284;-64
2023/05/20 04:08:04;;;;;;;4.47;4.10;;;;;;;12.39;85.68;98760.78;5031789;27;102735;-64
2023/05/20 04:10:33;;;;;;;4.80;4.40;;;;;;;12.64;84.89;98754.38;5041467;27;102777;-64
2023/05/20 04:13:02;;;;;;;4.67;4.27;;;;;;;12.81;83.72;98756.50;5043517;27;104530;-64
2023/05/20 04:15:33;;;;;;;4.87;3.87;;;;;;;12.86;84.16;98756.97;5044891;27;103394;-64
2023/05/20 04:18:02;;;;;;;4.70;4.00;;;;;;;12.96;83.01;98760.59;5044676;27;102865;-64
2023/05/20 04:20:31;;;;;;;4.67;4.27;;;;;;;12.98;83.55;98756.00;5041511;27;102829;-64
2023/05/20 04:22:58;;;;;;;4.30;3.90;;;;;;;13.12;82.70;98755.75;5026219;27;108311;-63
2023/05/20 04:25:30;;;;;;;4.50;3.90;;;;;;;13.23;81.70;98758.38;5026475;27;103183;-63
2023/05/20 04:28:02;;;;;;;4.50;4.10;;;;;;;13.33;81.49;98753.97;5032220;27;102705;-63
2023/05/20 04:30:32;;;;;;;4.83;4.43;;;;;;;13.27;82.26;98751.84;5034726;27;102853;-64
2023/05/20 04:33:02;;;;;;;5.07;4.60;;;;;;;13.08;82.83;98751.66;5044478;27;103314;-64
2023/05/20 04:35:30;;;;;;;4.90;4.07;;;;;;;13.29;82.77;98747.25;5029484;27;103182;-64
2023/05/20 04:38:03;;;;;;;5.83;4.87;;;;;;;13.43;82.14;98754.06;5034676;27;102656;-62
2023/05/20 04:40:31;;;;;;;4.77;4.27;;;;;;;13.27;83.27;98741.25;5046072;27;104621;-62
2023/05/20 04:42:59;;;;;;;4.83;4.30;;;;;;;13.33;83.09;98737.25;5041002;27;103708;-62
2023/05/20 04:45:29;;;;;;;4.10;3.77;;;;;;;13.35;83.00;98738.78;5037534;27;103188;-63
2023/05/20 04:47:57;;;;;;;4.53;4.13;;;;;;;13.29;83.01;98736.66;5030050;27;102674;-63
2023/05/20 04:50:25;;;;;;;5.93;4.77;;;;;;;13.28;83.55;98740.25;5043248;27;102579;-63
2023/05/20 04:52:56;;;;;;;8.17;5.03;;;;;;;12.92;84.67;98742.38;5026701;27;103826;-63
2023/05/20 04:55:26;;;;;;;3.80;3.40;;;;;;;13.15;85.07;98750.19;5025621;27;104232;-63
2023/05/20 04:57:54;;;;;;;4.17;3.87;;;;;;;13.30;83.49;98742.78;5030520;27;102781;-63
2023/05/20 05:00:22;;;;;;;6.00;5.37;;;;;;;13.05;84.51;98740.44;5026165;27;102949;-60
2023/05/20 05:02:51;;;;;;;5.20;4.70;;;;;;;13.08;85.77;98749.00;5041186;27;103382;-60
2023/05/20 05:05:20;;;;;;;4.97;4.47;;;;;;;13.29;84.85;98741.94;5042762;27;104438;-60
2023/05/20 05:07:50;;;;;;;5.40;4.77;;;;;;;13.59;83.59;98740.34;5026560;27;102987;-59
2023/05/20 05:10:19;;;;;;;4.93;4.53;;;;;;;13.87;81.88;98747.69;5045292;27;103004;-60
2023/05/20 05:12:47;;;;;;;6.67;5.53;;;;;;;14.05;81.79;98748.78;5043856;27;104311;-59
2023/05/20 05:15:16;;;;;;;5.90;5.30;;;;;;;14.05;81.01;98740.81;5045018;27;103167;-63
2023/05/20 05:17:45;;;;;;;5.57;5.07;;;;;;;14.11;80.85;98740.28;5035126;27;103842;-63
2023/05/20 05:20:15;;;;;;;6.53;4.90;;;;;;;14.30;80.93;98731.56;5039797;27;102962;-64
2023/05/20 05:22:43;;;;;;;4.10;3.70;;;;;;;14.48;80.73;98714.88;5024526;27;105653;-64
2023/05/20 05:25:13;;;;;;;8.13;4.57;;;;;;;14.61;80.06;98727.09;5044036;27;103587;-63
2023/05/20 05:27:43;;;;;;;4.23;3.87;;;;;;;14.78;80.20;98723.78;5030214;27;103218;-64
2023/05/20 05:30:11;;;;;;;5.00;4.60;;;;;;;14.83;79.57;98724.19;5020973;27;103732;-63
2023/05/20 05:32:39;;;;;;;4.13;3.73;;;;;;;15.09;78.86;98712.06;5021218;27;103395;-64
2023/05/20 05:35:08;;;;;;;4.90;4.27;;;;;;;15.26;78.16;98718.53;5022387;27;103161;-64
2023/05/20 05:37:37;;;;;;;5.40;4.90;;;;;;;15.01;80.09;98719.91;5036921;27;102839;-64
2023/05/20 05:40:07;;;;;;;4.73;3.73;;;;;;;15.18;78.38;98710.41;5019348;27;103148;-64
2023/05/20 05:42:36;;;;;;;4.90;4.13;;;;;;;15.03;79.03;98708.16;5042022;27;103481;-63
2023/05/20 05:45:05;;;;;;;8.57;5.13;;;;;;;14.68;79.72;98709.63;5006807;27;104580;-63
2023/05/20 05:47:33;;;;;;;5.73;4.90;;;;;;;14.84;79.74;98712.59;5036558;27;102677;-63
2023/05/20 05:50:01;;;;;;;4.50;4.10;;;;;;;15.34;77.94;98706.19;5023703;27;102846;-64
2023/05/20 05:52:32;;;;;;;5.43;4.90;;;;;;;15.42;78.30;98698.34;5044767;27;104516;-64
2023/05/20 05:55:04;;;;;;;5.30;4.37;;;;;;;15.49;78.09;98699.50;5040510;27;104411;-64
2023/05/20 05:57:35;;;;;;;5.83;5.00;;;;;;;15.13;78.54;98702.81;5039284;27;102814;-64
2023/05/20 06:00:08;;;;;;;5.80;4.90;;;;;;;15.08;79.15;98707.72;5035767;27;103275;-64
2023/05/20 06:02:45;;;;;;;5.03;4.57;;;;;;;15.65;78.06;98699.75;5044828;27;104343;-60
2023/05/20 06:05:25;;;;;;;6.47;5.20;;;;;;;15.98;76.07;98700.25;5043206;27;103205;-64
2023/05/20 06:07:56;;;;;;;5.47;5.00;;;;;;;15.42;77.65;98705.50;5043010;27;102663;-64
2023/05/20 06:10:26;;;;;;;6.80;5.30;;;;;;;15.49;77.30;98699.50;5038615;27;102697;-64
2023/05/20 06:12:55;;;;;;;5.00;4.50;;;;;;;15.96;76.62;98702.22;5044855;27;103349;-64
2023/05/20 06:15:23;;;;;;;5.30;4.70;;;;;;;16.24;76.03;98701.28;5044764;27;103186;-64
2023/05/20 06:17:51;;;;;;;5.93;4.57;;;;;;;16.15;76.86;98699.50;5031875;27;102922;-64
2023/05/20 06:20:20;;;;;;;5.67;5.03;;;;;;;16.27;75.50;98694.81;5047677;27;102933;-64
2023/05/20 06:22:48;;;;;;;7.97;5.10;;;;;;;16.14;75.85;98697.84;5036429;27;103532;-64
2023/05/20 06:25:16;;;;;;;5.60;5.00;;;;;;;16.38;74.77;98692.81;5038771;27;103103;-64
2023/05/20 06:27:47;;;;;;;5.23;4.47;;;;;;;16.76;73.40;98694.44;5044972;27;102721;-64
2023/05/20 06:30:18;;;;;;;5.60;5.10;;;;;;;16.57;73.81;98687.41;5021975;27;103362;-61
2023/05/20 06:32:47;;;;;;;8.23;5.77;;;;;;;16.30;75.88;98683.88;5023789;27;104272;-61
2023/05/20 06:35:16;;;;;;;5.77;5.13;;;;;;;16.60;75.66;98683.59;5029233;27;104318;-62
2023/05/20 06:37:47;;;;;;;11.47;5.23;;;;;;;16.63;74.62;98677.97;5026571;27;103119;-61
2023/05/20 06:40:16;;;;;;;7.60;5.90;;;;;;;16.59;73.12;98673.94;5027177;27;102671;-61
2023/05/20 06:42:44;;;;;;;6.50;5.57;;;;;;;16.34;74.02;98674.56;5044693;27;107350;-61
2023/05/20 06:45:15;;;;;;;6.37;4.93;;;;;;;16.38;74.88;98676.81;5041591;27;104485;-61
2023/05/20 06:47:53;;;;;;;6.05;5.50;;;;;;;16.62;73.89;98674.47;5028307;27;103080;-61
2023/05/20 06:50:21;;;;;;;5.03;4.63;;;;;;;16.28;73.91;98677.84;5046347;27;102722;-61
2023/05/20 06:52:52;;;;;;;7.07;5.10;;;;;;;16.53;73.46;98675.34;5023382;27;112583;-61
2023/05/20 06:55:20;;;;;;;6.05;4.60;;;;;;;16.64;73.90;98672.50;5026376;27;103278;-61
2023/05/20 06:57:48;;;;;;;5.32;4.82;;;;;;;16.69;73.12;98672.88;5040691;27;102669;-62
2023/05/20 07:00:19;;;;;;;6.60;5.60;;;;;;;16.49;74.04;98668.63;5029957;27;103187;-62
2023/05/20 07:02:47;;;;;;;5.80;4.90;;;;;;;16.55;73.28;98668.06;5024057;27;103873;-61
2023/05/20 07:05:15;;;;;;;5.82;5.03;;;;;;;16.57;73.65;98671.41;5022319;27;103414;-61
2023/05/20 07:07:43;;;;;;;5.05;4.55;;;;;;;17.42;70.99;98668.25;5024115;27;102786;-61
2023/05/20 07:10:11;;;;;;;5.95;4.57;;;;;;;17.66;69.37;98668.47;5039521;27;102856;-61
2023/05/20 07:12:42;;;;;;;5.68;5.15;;;;;;;17.36;70.47;98663.53;5043507;27;104560;-61
2023/05/20 07:15:11;;;;;;;5.65;4.95;;;;;;;16.32;73.91;98664.06;5043167;27;104245;-61
2023/05/20 07:17:40;;;;;;;5.55;5.03;;;;;;;16.67;72.27;98660.69;5022183;27;102727;-61
2023/05/20 07:20:09;;;;;;;5.22;4.82;;;;;;;17.45;71.12;98659.94;5006453;27;102733;-61
2023/05/20 07:22:38;;;;;;;5.40;4.90;;;;;;;17.71;69.43;98641.31;5043327;27;104787;-61
2023/05/20 07:25:14;;;;;;;5.35;4.80;;;;;;;17.26;70.41;98641.44;5037184;27;103175;-61
2023/05/20 07:27:42;;;;;;;5.70;5.10;;;;;;;17.80;67.84;98635.00;5034045;27;103094;-61
2023/05/20 07:30:11;;;;;;;4.97;4.47;;;;;;;17.47;70.37;98643.75;5037986;27;103330;-61
2023/05/20 07:32:42;;;;;;;5.25;4.78;;;;;;;18.19;68.14;98636.22;5023706;27;103190;-61
2023/05/20 07:35:10;;;;;;;6.22;5.03;;;;;;;17.61;70.53;98636.03;5023674;27;107170;-61
2023/05/20 07:37:38;;;;;;;6.32;5.43;;;;;;;17.80;68.05;98625.16;5037340;27;102995;-61
2023/05/20 07:40:09;;;;;;;5.45;4.95;;;;;;;18.38;68.83;98619.94;5022186;27;103152;-61
2023/05/20 07:42:40;;;;;;;9.02;5.28;;;;;;;19.32;64.06;98625.81;5045613;27;104525;-61
2023/05/20 07:45:10;;;;;;;6.35;5.60;;;;;;;18.50;66.65;98629.34;5022633;27;103054;-61
2023/05/20 07:47:38;;;;;;;5.78;5.18;;;;;;;18.81;66.26;98629.59;5048495;27;103215;-62
2023/05/20 07:50:08;;;;;;;5.90;5.40;;;;;;;17.88;68.31;98619.84;5026039;27;103299;-61
2023/05/20 07:52:37;;;;;;;5.88;5.38;;;;;;;18.29;67.55;98614.69;5030219;27;103319;-61
2023/05/20 07:55:25;;;;;;;5.43;4.93;;;;;;;18.64;66.51;98613.69;5036203;27;103046;-62
2023/05/20 07:57:53;;;;;;;6.68;5.75;;;;;;;18.94;64.72;98611.22;5044688;27;103147;-61
2023/05/20 08:00:23;;;;;;;5.78;4.95;;;;;;;20.36;62.07;98609.72;5021100;27;102825;-61
2023/05/20 08:02:51;;;;;;;5.95;5.35;;;;;;;18.85;63.75;98612.22;5039753;27;103695;-61
2023/05/20 08:05:28;;;;;;;4.88;4.40;;;;;;;20.08;61.86;98604.75;5033108;27;103359;-63
2023/05/20 08:07:58;;;;;;;5.78;5.28;;;;;;;20.06;61.13;98604.09;5035538;27;103009;-61
2023/05/20 08:10:29;;;;;;;6.05;5.53;;;;;;;18.43;65.10;98612.25;5023602;27;103968;-61
2023/05/20 08:12:57;;;;;;;6.50;5.90;;;;;;;18.41;66.96;98608.88;5038190;27;103814;-61
2023/05/20 08:15:26;;;;;;;6.00;5.40;;;;;;;18.78;65.61;98610.38;5012822;27;103233;-62
2023/05/20 08:17:54;;;;;;;6.25;5.65;;;;;;;19.02;63.39;98605.88;5038374;27;102682;-62
2023/05/20 08:20:22;;;;;;;5.47;4.95;;;;;;;20.15;61.14;98597.69;5038292;27;102855;-61
2023/05/20 08:22:51;;;;;;;5.38;4.88;;;;;;;21.78;56.23;98604.47;5039191;27;103305;-62
2023/05/20 08:25:19;;;;;;;5.70;5.10;;;;;;;21.92;55.76;98608.25;5035152;27;103192;-61
2023/05/20 08:27:47;;;;;;;5.25;4.75;;;;;;;22.40;52.78;98604.97;5018053;27;102805;-62
2023/05/20 08:30:17;;;;;;;4.68;4.20;;;;;;;22.60;52.64;98607.09;5034466;27;103110;-62
2023/05/20 08:32:47;;;;;;;5.22;4.75;;;;;;;21.73;53.44;98616.78;5038401;27;103238;-62
2023/05/20 08:35:15;;;;;;;6.15;5.20;;;;;;;20.05;58.97;98613.16;5039337;27;103271;-62
2023/05/20 08:37:43;;;;;;;5.13;4.72;;;;;;;20.11;59.59;98609.78;5022057;27;102795;-62
2023/05/20 08:40:14;;;;;;;4.80;4.05;;;;;;;20.26;59.86;98622.50;5024417;27;102775;-62
2023/05/20 08:42:43;;;;;;;6.10;4.85;;;;;;;21.54;57.21;98611.94;5038403;27;103915;-62
2023/05/20 08:45:18;;;;;;;7.57;5.70;;;;;;;20.32;58.38;98611.09;5045313;27;103169;-62
2023/05/20 08:47:51;;;;;;;49.15;9.65;;;;;;;19.75;61.49;98616.59;5036637;27;103253;-62
2023/05/20 08:50:19;;;;;;;9.40;4.95;;;;;;;21.04;57.49;98612.50;5045957;27;103973;-62
2023/05/20 08:52:49;;;;;;;6.47;4.90;;;;;;;19.32;62.34;98624.97;5044538;27;103497;-62
2023/05/20 08:55:25;;;;;;;5.38;4.78;;;;;;;20.51;57.94;98616.03;5040348;27;103333;-62
2023/05/20 08:57:54;;;;;;;;;;;;;;;19.60;61.49;98612.91;5039768;27;102670;-62
2023/05/20 09:00:26;;;;;;;28.02;6.88;;;;;;;21.15;57.71;98617.50;5044082;27;102778;-62
2023/05/20 09:02:59;;;;;;;5.43;4.93;;;;;;;22.47;56.09;98600.50;5021926;27;103624;-62
2023/05/20 09:05:30;;;;;;;4.55;4.15;;;;;;;23.78;52.74;98595.63;5046111;27;104324;-62
2023/05/20 09:08:10;;;;;;;5.43;4.63;;;;;;;23.37;50.47;98591.94;5044500;27;102662;-62
2023/05/20 09:10:41;;;;;;;9.05;4.95;;;;;;;22.16;53.44;98596.38;5038885;27;102774;-62
2023/05/20 09:13:10;;;;;;;5.60;5.00;;;;;;;22.81;53.77;98591.84;5045416;27;104681;-62
2023/05/20 09:15:39;;;;;;;5.07;4.60;;;;;;;24.17;49.74;98595.06;5021709;27;103830;-62
2023/05/20 09:18:07;;;;;;;5.35;4.95;;;;;;;23.19;50.72;98588.88;5039039;27;103364;-62
2023/05/20 09:20:39;;;;;;;6.57;5.47;;;;;;;21.38;55.47;98594.13;5040732;27;104738;-61
2023/05/20 09:23:10;;;;;;;42.08;10.38;;;;;;;20.98;56.85;98595.25;5040054;27;104038;-61
2023/05/20 09:25:38;;;;;;;6.28;5.68;;;;;;;20.42;58.61;98598.28;5041166;27;106913;-61
2023/05/20 09:28:08;;;;;;;5.85;5.20;;;;;;;21.07;56.24;98594.22;5027913;27;102830;-62
2023/05/20 09:30:36;;;;;;;5.47;4.97;;;;;;;20.93;55.69;98589.59;5005240;27;104027;-61
2023/05/20 09:33:08;;;;;;;5.03;4.63;;;;;;;22.47;52.50;98581.69;5044200;27;103730;-62
2023/05/20 09:35:37;;;;;;;5.93;4.80;;;;;;;21.84;53.88;98578.69;5019807;27;103235;-61
2023/05/20 09:38:07;;;;;;;6.20;5.28;;;;;;;20.37;58.22;98597.97;5042036;27;102926;-62
2023/05/20 09:40:37;;;;;;;5.10;4.70;;;;;;;21.71;55.41;98592.81;5042959;27;104342;-65
2023/05/20 09:43:09;;;;;;;5.93;4.57;;;;;;;22.15;53.26;98581.22;5040988;27;103490;-65
2023/05/20 09:45:41;;;;;;;4.75;4.35;;;;;;;22.32;53.34;98575.47;5048933;27;103297;-65
2023/05/20 09:48:11;;;;;;;5.25;4.75;;;;;;;23.21;51.04;98576.06;5039768;27;102678;-61
2023/05/20 09:50:41;;;;;;;5.05;4.40;;;;;;;23.53;50.84;98576.34;5044597;27;102948;-61
2023/05/20 09:53:11;;;;;;;5.28;4.78;;;;;;;23.57;50.68;98571.41;5043032;27;103337;-61
2023/05/20 09:55:39;;;;;;;5.10;4.60;;;;;;;23.35;49.87;98573.28;5018810;27;103519;-61
2023/05/20 09:58:13;;;;;;;5.47;4.97;;;;;;;23.03;50.82;98568.41;5044360;27;102646;-62
2023/05/20 10:00:44;;;;;;;5.28;4.82;;;;;;;23.22;49.89;98566.94;5033771;27;103068;-62
2023/05/20 10:03:12;;;;;;;6.00;4.93;;;;;;;24.51;48.84;98559.91;5028652;27;104584;-61
2023/05/20 10:05:45;;;;;;;7.85;4.55;;;;;;;25.31;46.98;98548.25;5043058;27;103209;-62
2023/05/20 10:08:42;;;;;;;6.40;4.63;;;;;;;23.94;47.13;98552.16;5044445;27;102745;-61
2023/05/20 10:11:25;;;;;;;5.43;4.93;;;;;;;23.16;51.41;98555.06;5044898;27;102627;-61
2023/05/20 10:14:09;;;;;;;8.57;5.28;;;;;;;23.26;50.41;98547.50;5046230;27;103275;-61
2023/05/20 10:16:45;;;;;;;5.45;4.95;;;;;;;21.60;55.31;98546.72;5026041;27;103108;-65
2023/05/20 10:19:24;;;;;;;6.78;5.85;;;;;;;22.21;54.79;98540.97;5027966;27;102686;-65
2023/05/20 10:22:00;;;;;;;5.57;5.00;;;;;;;21.65;54.49;98541.63;5034293;27;102670;-65
2023/05/20 10:24:33;;;;;;;6.93;4.50;;;;;;;22.78;52.57;98537.50;5030790;27;103347;-65
2023/05/20 10:27:02;;;;;;;6.32;4.10;;;;;;;23.99;50.48;98527.28;5042848;27;103334;-65
2023/05/20 10:29:42;;;;;;;5.53;4.63;;;;;;;24.89;49.45;98524.31;5045211;27;103042;-64
2023/05/20 10:32:11;;;;;;;5.07;4.68;;;;;;;23.42;49.96;98530.22;5051906;27;102776;-64
2023/05/20 10:34:46;;;;;;;6.82;4.90;;;;;;;22.72;51.98;98528.34;5044158;27;103220;-63
2023/05/20 10:37:24;;;;;;;5.50;5.00;;;;;;;23.22;51.13;98529.19;5045847;27;103328;-64
2023/05/20 10:39:52;;;;;;;5.38;4.88;;;;;;;23.84;49.67;98529.25;5048288;27;103747;-64
2023/05/20 10:42:29;;;;;;;5.00;4.47;;;;;;;22.56;51.02;98527.72;5048766;27;102588;-64
2023/05/20 10:44:58;;;;;;;4.63;4.22;;;;;;;23.94;48.92;98521.66;5045959;27;104170;-64
2023/05/20 10:47:26;;;;;;;3.85;3.55;;;;;;;24.95;47.17;98509.97;5049671;27;103414;-65
2023/05/20 10:49:54;;;;;;;5.82;5.15;;;;;;;23.15;49.26;98513.00;5033301;27;102978;-65
2023/05/20 10:52:24;;;;;;;5.15;4.65;;;;;;;22.74;51.21;98525.44;5046614;27;102805;-65
2023/05/20 10:54:56;;;;;;;4.82;4.43;;;;;;;23.53;49.58;98514.34;5043554;27;103140;-64
2023/05/20 10:57:26;;;;;;;5.07;4.28;;;;;;;23.10;49.50;98512.75;5031713;27;105687;-65
2023/05/20 10:59:54;;;;;;;4.88;4.47;;;;;;;22.72;51.97;98514.03;5044905;27;102752;-65
2023/05/20 11:02:27;;;;;;;6.40;3.83;;;;;;;23.96;47.22;98511.47;5033289;27;102893;-65
2023/05/20 11:04:56;;;;;;;4.95;4.45;;;;;;;24.49;47.32;98496.34;5040856;27;103370;-62
2023/05/20 11:07:26;;;;;;;5.00;4.50;;;;;;;24.90;47.08;98504.38;5043007;27;107199;-62
2023/05/20 11:09:54;;;;;;;4.82;4.43;;;;;;;24.55;47.02;98496.38;5041972;27;102735;-63
2023/05/20 11:12:23;;;;;;;5.43;4.45;;;;;;;23.87;48.46;98488.41;5046542;27;102637;-62
2023/05/20 11:14:52;;;;;;;4.75;4.35;;;;;;;24.11;47.25;98488.75;5042668;27;103431;-61
2023/05/20 11:17:20;;;;;;;5.15;4.07;;;;;;;24.53;47.37;98482.25;5045668;27;103233;-62
2023/05/20 11:19:50;;;;;;;4.25;3.85;;;;;;;24.58;46.90;98478.94;5044286;27;102951;-61
2023/05/20 11:22:18;;;;;;;4.22;3.92;;;;;;;24.20;46.44;98482.13;5041095;27;102764;-61
2023/05/20 11:24:46;;;;;;;5.38;4.88;;;;;;;24.40;47.45;98463.31;5049437;27;103254;-61
2023/05/20 11:27:14;;;;;;;4.35;3.95;;;;;;;24.76;45.48;98455.69;5050146;27;103167;-61
2023/05/20 11:29:42;;;;;;;4.47;4.07;;;;;;;23.78;47.59;98466.16;5030008;27;102617;-62
2023/05/20 11:32:10;;;;;;;4.70;4.30;;;;;;;24.10;47.37;98478.16;5041597;27;102650;-62
2023/05/20 11:34:39;;;;;;;4.72;4.30;;;;;;;23.92;46.92;98477.84;5043794;27;103600;-63
2023/05/20 11:37:10;;;;;;;4.05;3.75;;;;;;;25.14;44.29;98465.91;5043849;27;103353;-62